sensor_id;sensor_type;location;lat;lon;timestamp;temperature;humidity
24618;DHT22;12762;51.730;5.356;2023-06-19T00:01:10;22.90;56.00
24618;DHT22;12762;51.730;5.356;2023-06-19T00:03:37;22.90;56.20
24618;DHT22;12762;51.730;5.356;2023-06-19T00:06:05;22.90;56.30
24618;DHT22;12762;51.730;5.356;2023-06-19T00:08:32;22.90;56.60
24618;DHT22;12762;51.730;5.356;2023-06-19T00:10:59;22.90;57.20
24618;DHT22;12762;51.730;5.356;2023-06-19T00:13:26;22.90;56.70
24618;DHT22;12762;51.730;5.356;2023-06-19T00:15:52;22.80;56.70
24618;DHT22;12762;51.730;5.356;2023-06-19T00:18:19;22.80;56.80
24618;DHT22;12762;51.730;5.356;2023-06-19T00:20:46;22.80;56.90
24618;DHT22;12762;51.730;5.356;2023-06-19T00:23:14;22.70;56.90
24618;DHT22;12762;51.730;5.356;2023-06-19T00:25:43;22.70;56.90
24618;DHT22;12762;51.730;5.356;2023-06-19T00:28:11;22.70;57.10
24618;DHT22;12762;51.730;5.356;2023-06-19T00:30:41;22.70;57.20
24618;DHT22;12762;51.730;5.356;2023-06-19T00:33:08;22.70;57.20
24618;DHT22;12762;51.730;5.356;2023-06-19T00:35:35;22.60;57.30
24618;DHT22;12762;51.730;5.356;2023-06-19T00:38:02;22.60;57.40
24618;DHT22;12762;51.730;5.356;2023-06-19T00:40:31;22.60;57.50
24618;DHT22;12762;51.730;5.356;2023-06-19T00:42:59;22.60;57.70
24618;DHT22;12762;51.730;5.356;2023-06-19T00:45:26;22.60;57.80
24618;DHT22;12762;51.730;5.356;2023-06-19T00:47:54;22.50;57.70
24618;DHT22;12762;51.730;5.356;2023-06-19T00:50:22;22.50;57.90
24618;DHT22;12762;51.730;5.356;2023-06-19T00:52:50;22.50;58.00
24618;DHT22;12762;51.730;5.356;2023-06-19T00:55:18;22.40;58.10
24618;DHT22;12762;51.730;5.356;2023-06-19T00:57:46;22.40;58.20
24618;DHT22;12762;51.730;5.356;2023-06-19T01:00:13;22.40;58.20
24618;DHT22;12762;51.730;5.356;2023-06-19T01:02:40;22.30;58.30
24618;DHT22;12762;51.730;5.356;2023-06-19T01:05:07;22.30;58.50
24618;DHT22;12762;51.730;5.356;2023-06-19T01:07:52;22.20;58.50
24618;DHT22;12762;51.730;5.356;2023-06-19T01:10:26;22.20;58.80
24618;DHT22;12762;51.730;5.356;2023-06-19T01:12:58;22.20;58.90
24618;DHT22;12762;51.730;5.356;2023-06-19T01:15:27;22.10;59.00
24618;DHT22;12762;51.730;5.356;2023-06-19T01:17:56;22.10;59.20
24618;DHT22;12762;51.730;5.356;2023-06-19T01:20:25;22.00;59.30
24618;DHT22;12762;51.730;5.356;2023-06-19T01:22:52;22.00;59.50
24618;DHT22;12762;51.730;5.356;2023-06-19T01:25:24;21.90;59.50
24618;DHT22;12762;51.730;5.356;2023-06-19T01:27:51;21.90;59.70
24618;DHT22;12762;51.730;5.356;2023-06-19T01:30:19;21.80;59.80
24618;DHT22;12762;51.730;5.356;2023-06-19T01:33:00;21.80;60.00
24618;DHT22;12762;51.730;5.356;2023-06-19T01:35:33;21.70;60.20
24618;DHT22;12762;51.730;5.356;2023-06-19T01:38:01;21.70;60.50
24618;DHT22;12762;51.730;5.356;2023-06-19T01:40:30;21.70;60.70
24618;DHT22;12762;51.730;5.356;2023-06-19T01:43:02;21.60;61.30
24618;DHT22;12762;51.730;5.356;2023-06-19T01:45:31;21.60;61.30
24618;DHT22;12762;51.730;5.356;2023-06-19T01:47:58;21.60;61.60
24618;DHT22;12762;51.730;5.356;2023-06-19T01:50:25;21.50;61.90
24618;DHT22;12762;51.730;5.356;2023-06-19T01:52:52;21.50;62.10
24618;DHT22;12762;51.730;5.356;2023-06-19T01:55:20;21.50;62.40
24618;DHT22;12762;51.730;5.356;2023-06-19T01:57:47;21.50;62.70
24618;DHT22;12762;51.730;5.356;2023-06-19T02:00:14;21.40;62.70
24618;DHT22;12762;51.730;5.356;2023-06-19T02:02:41;21.40;63.00
24618;DHT22;12762;51.730;5.356;2023-06-19T02:05:08;21.40;63.00
24618;DHT22;12762;51.730;5.356;2023-06-19T02:07:35;21.40;63.50
24618;DHT22;12762;51.730;5.356;2023-06-19T02:10:03;21.40;63.80
24618;DHT22;12762;51.730;5.356;2023-06-19T02:12:31;21.40;63.80
24618;DHT22;12762;51.730;5.356;2023-06-19T02:14:58;21.30;63.60
24618;DHT22;12762;51.730;5.356;2023-06-19T02:17:25;21.30;64.10
24618;DHT22;12762;51.730;5.356;2023-06-19T02:19:52;21.30;64.10
24618;DHT22;12762;51.730;5.356;2023-06-19T02:22:18;21.30;64.10
24618;DHT22;12762;51.730;5.356;2023-06-19T02:24:45;21.30;64.20
24618;DHT22;12762;51.730;5.356;2023-06-19T02:27:12;21.30;64.30
24618;DHT22;12762;51.730;5.356;2023-06-19T02:29:39;21.30;64.60
24618;DHT22;12762;51.730;5.356;2023-06-19T02:32:06;21.20;64.70
24618;DHT22;12762;51.730;5.356;2023-06-19T02:34:33;21.20;64.80
24618;DHT22;12762;51.730;5.356;2023-06-19T02:37:00;21.20;65.10
24618;DHT22;12762;51.730;5.356;2023-06-19T02:39:28;21.20;65.00
24618;DHT22;12762;51.730;5.356;2023-06-19T02:41:58;21.20;65.30
24618;DHT22;12762;51.730;5.356;2023-06-19T02:44:26;21.20;65.50
24618;DHT22;12762;51.730;5.356;2023-06-19T02:46:53;21.20;65.40
24618;DHT22;12762;51.730;5.356;2023-06-19T02:49:20;21.10;65.40
24618;DHT22;12762;51.730;5.356;2023-06-19T02:51:47;21.10;65.60
24618;DHT22;12762;51.730;5.356;2023-06-19T02:54:13;21.10;65.70
24618;DHT22;12762;51.730;5.356;2023-06-19T02:56:40;21.00;65.90
24618;DHT22;12762;51.730;5.356;2023-06-19T02:59:09;21.00;66.00
24618;DHT22;12762;51.730;5.356;2023-06-19T03:01:36;20.90;66.30
24618;DHT22;12762;51.730;5.356;2023-06-19T03:04:04;20.90;66.40
24618;DHT22;12762;51.730;5.356;2023-06-19T03:06:30;20.90;66.60
24618;DHT22;12762;51.730;5.356;2023-06-19T03:08:57;20.80;66.80
24618;DHT22;12762;51.730;5.356;2023-06-19T03:11:26;20.80;67.00
24618;DHT22;12762;51.730;5.356;2023-06-19T03:13:54;20.80;67.10
24618;DHT22;12762;51.730;5.356;2023-06-19T03:16:21;20.80;68.20
24618;DHT22;12762;51.730;5.356;2023-06-19T03:18:48;20.80;67.40
24618;DHT22;12762;51.730;5.356;2023-06-19T03:21:18;20.70;67.40
24618;DHT22;12762;51.730;5.356;2023-06-19T03:23:46;20.70;67.50
24618;DHT22;12762;51.730;5.356;2023-06-19T03:26:13;20.70;67.90
24618;DHT22;12762;51.730;5.356;2023-06-19T03:28:40;20.70;68.10
24618;DHT22;12762;51.730;5.356;2023-06-19T03:31:07;20.70;68.10
24618;DHT22;12762;51.730;5.356;2023-06-19T03:33:34;20.70;68.20
24618;DHT22;12762;51.730;5.356;2023-06-19T03:36:04;20.70;68.50
24618;DHT22;12762;51.730;5.356;2023-06-19T03:38:32;20.70;68.70
24618;DHT22;12762;51.730;5.356;2023-06-19T03:40:59;20.70;68.60
24618;DHT22;12762;51.730;5.356;2023-06-19T03:43:26;20.70;68.70
24618;DHT22;12762;51.730;5.356;2023-06-19T03:45:55;20.70;68.90
24618;DHT22;12762;51.730;5.356;2023-06-19T03:48:22;20.70;68.90
24618;DHT22;12762;51.730;5.356;2023-06-19T03:50:49;20.70;69.00
24618;DHT22;12762;51.730;5.356;2023-06-19T03:53:19;20.70;69.20
24618;DHT22;12762;51.730;5.356;2023-06-19T03:55:46;20.70;69.20
24618;DHT22;12762;51.730;5.356;2023-06-19T03:58:13;20.70;69.50
24618;DHT22;12762;51.730;5.356;2023-06-19T04:00:40;20.70;69.50
24618;DHT22;12762;51.730;5.356;2023-06-19T04:03:08;20.70;69.50
24618;DHT22;12762;51.730;5.356;2023-06-19T04:05:36;20.70;69.80
24618;DHT22;12762;51.730;5.356;2023-06-19T04:08:06;20.70;69.70
24618;DHT22;12762;51.730;5.356;2023-06-19T04:10:33;20.70;69.80
24618;DHT22;12762;51.730;5.356;2023-06-19T04:13:03;20.70;70.00
24618;DHT22;12762;51.730;5.356;2023-06-19T04:15:33;20.70;70.10
24618;DHT22;12762;51.730;5.356;2023-06-19T04:18:02;20.70;70.10
24618;DHT22;12762;51.730;5.356;2023-06-19T04:20:30;20.70;70.20
24618;DHT22;12762;51.730;5.356;2023-06-19T04:22:56;20.70;70.40
24618;DHT22;12762;51.730;5.356;2023-06-19T04:25:23;20.70;70.30
24618;DHT22;12762;51.730;5.356;2023-06-19T04:27:50;20.70;70.50
24618;DHT22;12762;51.730;5.356;2023-06-19T04:30:20;20.70;70.70
24618;DHT22;12762;51.730;5.356;2023-06-19T04:32:48;20.70;70.80
24618;DHT22;12762;51.730;5.356;2023-06-19T04:35:15;20.70;70.90
24618;DHT22;12762;51.730;5.356;2023-06-19T04:37:45;20.70;71.10
24618;DHT22;12762;51.730;5.356;2023-06-19T04:40:12;20.70;71.20
24618;DHT22;12762;51.730;5.356;2023-06-19T04:42:38;20.70;71.30
24618;DHT22;12762;51.730;5.356;2023-06-19T04:45:09;20.70;71.30
24618;DHT22;12762;51.730;5.356;2023-06-19T04:47:36;20.80;71.50
24618;DHT22;12762;51.730;5.356;2023-06-19T04:50:18;20.80;71.40
24618;DHT22;12762;51.730;5.356;2023-06-19T04:52:45;20.80;71.30
24618;DHT22;12762;51.730;5.356;2023-06-19T04:55:14;20.90;71.40
24618;DHT22;12762;51.730;5.356;2023-06-19T04:57:41;20.90;71.40
24618;DHT22;12762;51.730;5.356;2023-06-19T05:00:08;21.00;71.60
24618;DHT22;12762;51.730;5.356;2023-06-19T05:02:37;21.00;71.60
24618;DHT22;12762;51.730;5.356;2023-06-19T05:05:04;21.00;71.60
24618;DHT22;12762;51.730;5.356;2023-06-19T05:07:32;21.00;71.60
24618;DHT22;12762;51.730;5.356;2023-06-19T05:09:59;21.00;71.70
24618;DHT22;12762;51.730;5.356;2023-06-19T05:12:26;21.00;71.70
24618;DHT22;12762;51.730;5.356;2023-06-19T05:14:53;21.00;71.80
24618;DHT22;12762;51.730;5.356;2023-06-19T05:17:20;21.10;71.90
24618;DHT22;12762;51.730;5.356;2023-06-19T05:19:47;21.10;71.90
24618;DHT22;12762;51.730;5.356;2023-06-19T05:22:14;21.10;72.10
24618;DHT22;12762;51.730;5.356;2023-06-19T05:24:41;21.10;72.10
24618;DHT22;12762;51.730;5.356;2023-06-19T05:27:08;21.10;72.20
24618;DHT22;12762;51.730;5.356;2023-06-19T05:29:35;21.10;72.20
24618;DHT22;12762;51.730;5.356;2023-06-19T05:32:02;21.20;72.30
24618;DHT22;12762;51.730;5.356;2023-06-19T05:34:29;21.20;72.20
24618;DHT22;12762;51.730;5.356;2023-06-19T05:36:58;21.20;72.10
24618;DHT22;12762;51.730;5.356;2023-06-19T05:39:27;21.20;72.20
24618;DHT22;12762;51.730;5.356;2023-06-19T05:41:54;21.20;72.10
24618;DHT22;12762;51.730;5.356;2023-06-19T05:44:21;21.30;72.20
24618;DHT22;12762;51.730;5.356;2023-06-19T05:46:48;21.30;72.10
24618;DHT22;12762;51.730;5.356;2023-06-19T05:49:14;21.30;72.00
24618;DHT22;12762;51.730;5.356;2023-06-19T05:51:41;21.40;72.00
24618;DHT22;12762;51.730;5.356;2023-06-19T05:54:08;21.40;71.80
24618;DHT22;12762;51.730;5.356;2023-06-19T05:56:36;21.40;72.40
24618;DHT22;12762;51.730;5.356;2023-06-19T05:59:03;21.40;71.40
24618;DHT22;12762;51.730;5.356;2023-06-19T06:01:30;21.40;71.30
24618;DHT22;12762;51.730;5.356;2023-06-19T06:03:57;21.50;71.40
24618;DHT22;12762;51.730;5.356;2023-06-19T06:06:24;21.50;71.20
24618;DHT22;12762;51.730;5.356;2023-06-19T06:08:52;21.60;71.10
24618;DHT22;12762;51.730;5.356;2023-06-19T06:11:19;21.70;71.00
24618;DHT22;12762;51.730;5.356;2023-06-19T06:13:46;21.70;70.40
24618;DHT22;12762;51.730;5.356;2023-06-19T06:16:13;21.80;70.30
24618;DHT22;12762;51.730;5.356;2023-06-19T06:18:41;21.80;70.00
24618;DHT22;12762;51.730;5.356;2023-06-19T06:21:08;21.80;69.70
24618;DHT22;12762;51.730;5.356;2023-06-19T06:23:35;21.80;69.50
24618;DHT22;12762;51.730;5.356;2023-06-19T06:26:04;21.80;69.20
24618;DHT22;12762;51.730;5.356;2023-06-19T06:28:31;21.80;68.90
24618;DHT22;12762;51.730;5.356;2023-06-19T06:30:58;21.80;68.70
24618;DHT22;12762;51.730;5.356;2023-06-19T06:33:25;21.80;68.40
24618;DHT22;12762;51.730;5.356;2023-06-19T06:35:54;21.80;68.20
24618;DHT22;12762;51.730;5.356;2023-06-19T06:38:21;21.90;68.20
24618;DHT22;12762;51.730;5.356;2023-06-19T06:40:48;21.90;68.10
24618;DHT22;12762;51.730;5.356;2023-06-19T06:43:15;22.00;68.00
24618;DHT22;12762;51.730;5.356;2023-06-19T06:45:42;22.20;67.80
24618;DHT22;12762;51.730;5.356;2023-06-19T06:48:09;22.20;67.30
24618;DHT22;12762;51.730;5.356;2023-06-19T06:50:36;22.30;67.10
24618;DHT22;12762;51.730;5.356;2023-06-19T06:53:03;22.50;67.30
24618;DHT22;12762;51.730;5.356;2023-06-19T06:55:30;23.00;67.20
24618;DHT22;12762;51.730;5.356;2023-06-19T06:57:57;23.40;65.60
24618;DHT22;12762;51.730;5.356;2023-06-19T07:00:24;23.50;64.60
24618;DHT22;12762;51.730;5.356;2023-06-19T07:02:51;23.50;64.10
24618;DHT22;12762;51.730;5.356;2023-06-19T07:05:18;23.50;63.90
24618;DHT22;12762;51.730;5.356;2023-06-19T07:07:45;23.50;64.30
24618;DHT22;12762;51.730;5.356;2023-06-19T07:10:12;23.80;64.10
24618;DHT22;12762;51.730;5.356;2023-06-19T07:12:46;23.90;63.20
24618;DHT22;12762;51.730;5.356;2023-06-19T07:15:13;23.90;62.60
24618;DHT22;12762;51.730;5.356;2023-06-19T07:17:40;23.80;62.40
24618;DHT22;12762;51.730;5.356;2023-06-19T07:20:07;23.90;63.10
24618;DHT22;12762;51.730;5.356;2023-06-19T07:22:34;24.20;62.60
24618;DHT22;12762;51.730;5.356;2023-06-19T07:25:02;24.30;61.80
24618;DHT22;12762;51.730;5.356;2023-06-19T07:27:30;24.30;61.20
24618;DHT22;12762;51.730;5.356;2023-06-19T07:30:00;24.10;61.20
24618;DHT22;12762;51.730;5.356;2023-06-19T07:32:27;24.00;61.70
24618;DHT22;12762;51.730;5.356;2023-06-19T07:34:55;24.10;62.30
24618;DHT22;12762;51.730;5.356;2023-06-19T07:37:22;24.50;62.10
24618;DHT22;12762;51.730;5.356;2023-06-19T07:39:50;24.80;60.80
24618;DHT22;12762;51.730;5.356;2023-06-19T07:42:18;24.80;60.40
24618;DHT22;12762;51.730;5.356;2023-06-19T07:44:46;24.90;60.40
24618;DHT22;12762;51.730;5.356;2023-06-19T07:47:15;24.80;60.40
24618;DHT22;12762;51.730;5.356;2023-06-19T07:49:42;24.90;60.70
24618;DHT22;12762;51.730;5.356;2023-06-19T07:52:09;25.10;60.30
24618;DHT22;12762;51.730;5.356;2023-06-19T07:54:47;25.10;60.10
24618;DHT22;12762;51.730;5.356;2023-06-19T07:57:17;25.10;60.10
24618;DHT22;12762;51.730;5.356;2023-06-19T07:59:44;25.10;60.10
24618;DHT22;12762;51.730;5.356;2023-06-19T08:02:11;25.30;60.30
24618;DHT22;12762;51.730;5.356;2023-06-19T08:04:38;25.40;60.00
24618;DHT22;12762;51.730;5.356;2023-06-19T08:07:05;25.70;59.90
24618;DHT22;12762;51.730;5.356;2023-06-19T08:09:33;25.90;59.30
24618;DHT22;12762;51.730;5.356;2023-06-19T08:12:01;26.00;58.80
24618;DHT22;12762;51.730;5.356;2023-06-19T08:14:28;25.90;58.90
24618;DHT22;12762;51.730;5.356;2023-06-19T08:16:58;25.90;58.90
24618;DHT22;12762;51.730;5.356;2023-06-19T08:19:25;26.00;58.60
24618;DHT22;12762;51.730;5.356;2023-06-19T08:21:52;26.10;58.60
24618;DHT22;12762;51.730;5.356;2023-06-19T08:24:22;26.10;58.50
24618;DHT22;12762;51.730;5.356;2023-06-19T08:26:49;26.10;58.40
24618;DHT22;12762;51.730;5.356;2023-06-19T08:29:18;26.20;58.70
24618;DHT22;12762;51.730;5.356;2023-06-19T08:31:45;26.40;57.90
24618;DHT22;12762;51.730;5.356;2023-06-19T08:34:12;26.60;57.40
24618;DHT22;12762;51.730;5.356;2023-06-19T08:36:39;26.70;57.00
24618;DHT22;12762;51.730;5.356;2023-06-19T08:39:09;26.70;56.70
24618;DHT22;12762;51.730;5.356;2023-06-19T08:41:39;26.70;56.70
24618;DHT22;12762;51.730;5.356;2023-06-19T08:44:08;26.70;56.60
24618;DHT22;12762;51.730;5.356;2023-06-19T08:46:36;26.80;56.60
24618;DHT22;12762;51.730;5.356;2023-06-19T08:49:08;26.80;56.50
24618;DHT22;12762;51.730;5.356;2023-06-19T08:51:37;26.90;56.50
24618;DHT22;12762;51.730;5.356;2023-06-19T08:54:05;26.90;56.20
24618;DHT22;12762;51.730;5.356;2023-06-19T08:56:34;26.90;56.10
24618;DHT22;12762;51.730;5.356;2023-06-19T08:59:16;26.90;56.00
24618;DHT22;12762;51.730;5.356;2023-06-19T09:01:51;26.80;56.10
24618;DHT22;12762;51.730;5.356;2023-06-19T09:04:20;26.80;56.30
24618;DHT22;12762;51.730;5.356;2023-06-19T09:06:52;26.80;56.30
24618;DHT22;12762;51.730;5.356;2023-06-19T09:09:20;26.90;56.20
24618;DHT22;12762;51.730;5.356;2023-06-19T09:12:02;27.10;55.80
24618;DHT22;12762;51.730;5.356;2023-06-19T09:17:05;27.60;55.50
24618;DHT22;12762;51.730;5.356;2023-06-19T09:19:33;27.70;55.20
24618;DHT22;12762;51.730;5.356;2023-06-19T09:22:05;27.80;54.60
24618;DHT22;12762;51.730;5.356;2023-06-19T09:24:37;27.80;54.10
24618;DHT22;12762;51.730;5.356;2023-06-19T09:27:15;27.80;54.10
24618;DHT22;12762;51.730;5.356;2023-06-19T09:29:48;27.60;54.40
24618;DHT22;12762;51.730;5.356;2023-06-19T09:32:25;27.60;54.50
24618;DHT22;12762;51.730;5.356;2023-06-19T09:34:55;27.80;54.50
24618;DHT22;12762;51.730;5.356;2023-06-19T09:37:27;27.90;53.90
24618;DHT22;12762;51.730;5.356;2023-06-19T09:39:56;28.10;53.70
24618;DHT22;12762;51.730;5.356;2023-06-19T09:42:34;28.20;53.40
24618;DHT22;12762;51.730;5.356;2023-06-19T09:45:21;28.40;52.80
24618;DHT22;12762;51.730;5.356;2023-06-19T09:47:52;28.50;52.80
24618;DHT22;12762;51.730;5.356;2023-06-19T09:50:22;28.60;52.30
24618;DHT22;12762;51.730;5.356;2023-06-19T09:52:55;28.60;51.90
24618;DHT22;12762;51.730;5.356;2023-06-19T09:55:24;28.60;51.90
24618;DHT22;12762;51.730;5.356;2023-06-19T09:57:51;28.60;51.90
24618;DHT22;12762;51.730;5.356;2023-06-19T10:00:23;28.70;51.80
24618;DHT22;12762;51.730;5.356;2023-06-19T10:02:57;28.50;51.80
24618;DHT22;12762;51.730;5.356;2023-06-19T10:05:30;28.50;52.10
24618;DHT22;12762;51.730;5.356;2023-06-19T10:07:57;28.70;51.80
24618;DHT22;12762;51.730;5.356;2023-06-19T10:10:27;28.80;51.60
24618;DHT22;12762;51.730;5.356;2023-06-19T10:13:00;28.80;51.30
24618;DHT22;12762;51.730;5.356;2023-06-19T10:15:41;28.90;51.00
24618;DHT22;12762;51.730;5.356;2023-06-19T10:18:17;28.90;51.20
24618;DHT22;12762;51.730;5.356;2023-06-19T10:20:46;29.00;51.10
24618;DHT22;12762;51.730;5.356;2023-06-19T10:23:22;29.10;50.90
24618;DHT22;12762;51.730;5.356;2023-06-19T10:28:25;29.30;50.00
24618;DHT22;12762;51.730;5.356;2023-06-19T10:31:01;29.20;50.00
24618;DHT22;12762;51.730;5.356;2023-06-19T10:33:33;29.20;50.40
24618;DHT22;12762;51.730;5.356;2023-06-19T10:36:01;29.20;50.00
24618;DHT22;12762;51.730;5.356;2023-06-19T10:38:29;29.20;50.10
24618;DHT22;12762;51.730;5.356;2023-06-19T10:40:56;29.20;49.70
24618;DHT22;12762;51.730;5.356;2023-06-19T10:43:24;29.20;49.60
24618;DHT22;12762;51.730;5.356;2023-06-19T10:45:54;29.20;49.60
24618;DHT22;12762;51.730;5.356;2023-06-19T10:48:25;29.20;49.50
24618;DHT22;12762;51.730;5.356;2023-06-19T10:50:52;29.10;49.60
24618;DHT22;12762;51.730;5.356;2023-06-19T10:53:29;29.10;49.60
24618;DHT22;12762;51.730;5.356;2023-06-19T10:56:00;29.00;49.40
24618;DHT22;12762;51.730;5.356;2023-06-19T10:58:28;28.90;49.80
24618;DHT22;12762;51.730;5.356;2023-06-19T11:00:56;29.00;50.00
24618;DHT22;12762;51.730;5.356;2023-06-19T11:03:26;29.00;49.50
24618;DHT22;12762;51.730;5.356;2023-06-19T11:05:53;29.10;49.30
24618;DHT22;12762;51.730;5.356;2023-06-19T11:08:22;29.10;49.20
24618;DHT22;12762;51.730;5.356;2023-06-19T11:10:52;29.20;49.50
24618;DHT22;12762;51.730;5.356;2023-06-19T11:13:20;29.10;49.00
24618;DHT22;12762;51.730;5.356;2023-06-19T11:15:48;29.30;49.10
24618;DHT22;12762;51.730;5.356;2023-06-19T11:18:18;29.40;48.60
24618;DHT22;12762;51.730;5.356;2023-06-19T11:20:46;29.50;48.60
24618;DHT22;12762;51.730;5.356;2023-06-19T11:23:14;29.50;48.30
24618;DHT22;12762;51.730;5.356;2023-06-19T11:25:42;29.50;48.30
24618;DHT22;12762;51.730;5.356;2023-06-19T11:28:13;29.40;47.90
24618;DHT22;12762;51.730;5.356;2023-06-19T11:30:41;29.40;47.90
24618;DHT22;12762;51.730;5.356;2023-06-19T11:33:20;29.60;48.30
24618;DHT22;12762;51.730;5.356;2023-06-19T11:35:51;29.70;47.50
24618;DHT22;12762;51.730;5.356;2023-06-19T11:38:22;29.70;47.30
24618;DHT22;12762;51.730;5.356;2023-06-19T11:40:49;29.70;47.40
24618;DHT22;12762;51.730;5.356;2023-06-19T11:43:30;29.80;47.10
24618;DHT22;12762;51.730;5.356;2023-06-19T11:46:04;29.90;47.00
24618;DHT22;12762;51.730;5.356;2023-06-19T11:48:32;30.00;45.90
24618;DHT22;12762;51.730;5.356;2023-06-19T11:51:00;30.10;45.90
24618;DHT22;12762;51.730;5.356;2023-06-19T11:53:27;30.30;46.00
24618;DHT22;12762;51.730;5.356;2023-06-19T11:55:55;30.50;45.40
24618;DHT22;12762;51.730;5.356;2023-06-19T11:58:22;30.60;45.00
24618;DHT22;12762;51.730;5.356;2023-06-19T12:00:49;30.70;45.00
24618;DHT22;12762;51.730;5.356;2023-06-19T12:03:16;30.70;44.90
24618;DHT22;12762;51.730;5.356;2023-06-19T12:05:43;30.80;45.40
24618;DHT22;12762;51.730;5.356;2023-06-19T12:08:10;30.80;44.40
24618;DHT22;12762;51.730;5.356;2023-06-19T12:10:37;30.70;44.40
24618;DHT22;12762;51.730;5.356;2023-06-19T12:13:04;30.60;44.00
24618;DHT22;12762;51.730;5.356;2023-06-19T12:15:31;30.50;44.40
24618;DHT22;12762;51.730;5.356;2023-06-19T12:18:00;30.60;44.40
24618;DHT22;12762;51.730;5.356;2023-06-19T12:20:27;30.70;44.30
24618;DHT22;12762;51.730;5.356;2023-06-19T12:22:55;30.80;44.90
24618;DHT22;12762;51.730;5.356;2023-06-19T12:25:21;30.90;43.90
24618;DHT22;12762;51.730;5.356;2023-06-19T12:27:48;31.00;44.00
24618;DHT22;12762;51.730;5.356;2023-06-19T12:30:21;31.10;43.60
24618;DHT22;12762;51.730;5.356;2023-06-19T12:32:49;31.20;43.80
24618;DHT22;12762;51.730;5.356;2023-06-19T12:35:16;31.10;43.20
24618;DHT22;12762;51.730;5.356;2023-06-19T12:37:44;31.00;43.50
24618;DHT22;12762;51.730;5.356;2023-06-19T12:40:12;30.90;43.50
24618;DHT22;12762;51.730;5.356;2023-06-19T12:42:38;31.00;43.70
24618;DHT22;12762;51.730;5.356;2023-06-19T12:45:06;31.10;43.20
24618;DHT22;12762;51.730;5.356;2023-06-19T12:47:33;31.20;43.40
24618;DHT22;12762;51.730;5.356;2023-06-19T12:50:00;31.40;42.60
24618;DHT22;12762;51.730;5.356;2023-06-19T12:52:27;31.50;42.20
24618;DHT22;12762;51.730;5.356;2023-06-19T12:54:54;31.70;42.40
24618;DHT22;12762;51.730;5.356;2023-06-19T12:57:21;31.70;42.20
24618;DHT22;12762;51.730;5.356;2023-06-19T12:59:48;31.80;42.20
24618;DHT22;12762;51.730;5.356;2023-06-19T13:02:14;31.90;41.90
24618;DHT22;12762;51.730;5.356;2023-06-19T13:04:42;31.90;41.50
24618;DHT22;12762;51.730;5.356;2023-06-19T13:07:08;31.80;41.30
24618;DHT22;12762;51.730;5.356;2023-06-19T13:09:38;31.80;41.10
24618;DHT22;12762;51.730;5.356;2023-06-19T13:12:08;31.70;41.10
24618;DHT22;12762;51.730;5.356;2023-06-19T13:14:35;31.60;41.80
24618;DHT22;12762;51.730;5.356;2023-06-19T13:17:04;31.80;41.80
24618;DHT22;12762;51.730;5.356;2023-06-19T13:19:31;32.00;41.40
24618;DHT22;12762;51.730;5.356;2023-06-19T13:21:58;32.00;40.90
24618;DHT22;12762;51.730;5.356;2023-06-19T13:24:25;32.00;40.90
24618;DHT22;12762;51.730;5.356;2023-06-19T13:26:54;31.90;40.80
24618;DHT22;12762;51.730;5.356;2023-06-19T13:29:21;31.70;40.90
24618;DHT22;12762;51.730;5.356;2023-06-19T13:31:48;31.70;41.60
24618;DHT22;12762;51.730;5.356;2023-06-19T13:34:15;31.90;41.20
24618;DHT22;12762;51.730;5.356;2023-06-19T13:36:42;32.00;40.70
24618;DHT22;12762;51.730;5.356;2023-06-19T13:39:09;32.10;40.70
24618;DHT22;12762;51.730;5.356;2023-06-19T13:41:40;32.00;40.20
24618;DHT22;12762;51.730;5.356;2023-06-19T13:44:07;31.60;40.10
24618;DHT22;12762;51.730;5.356;2023-06-19T13:46:34;31.40;40.60
24618;DHT22;12762;51.730;5.356;2023-06-19T13:49:01;31.40;40.60
24618;DHT22;12762;51.730;5.356;2023-06-19T13:51:28;31.40;40.50
24618;DHT22;12762;51.730;5.356;2023-06-19T13:53:55;31.30;40.40
24618;DHT22;12762;51.730;5.356;2023-06-19T13:56:22;31.10;40.60
24618;DHT22;12762;51.730;5.356;2023-06-19T13:58:50;30.90;40.70
24618;DHT22;12762;51.730;5.356;2023-06-19T14:01:20;30.80;41.10
24618;DHT22;12762;51.730;5.356;2023-06-19T14:03:47;30.90;41.40
24618;DHT22;12762;51.730;5.356;2023-06-19T14:06:14;31.10;41.30
24618;DHT22;12762;51.730;5.356;2023-06-19T14:08:41;31.20;41.30
24618;DHT22;12762;51.730;5.356;2023-06-19T14:11:08;31.40;40.70
24618;DHT22;12762;51.730;5.356;2023-06-19T14:13:35;31.50;40.10
24618;DHT22;12762;51.730;5.356;2023-06-19T14:16:02;31.60;40.40
24618;DHT22;12762;51.730;5.356;2023-06-19T14:18:29;31.80;40.40
24618;DHT22;12762;51.730;5.356;2023-06-19T14:20:56;32.10;40.40
24618;DHT22;12762;51.730;5.356;2023-06-19T14:23:23;32.30;40.10
24618;DHT22;12762;51.730;5.356;2023-06-19T14:25:50;32.50;40.10
24618;DHT22;12762;51.730;5.356;2023-06-19T14:28:19;32.50;40.00
24618;DHT22;12762;51.730;5.356;2023-06-19T14:30:46;32.60;40.20
24618;DHT22;12762;51.730;5.356;2023-06-19T14:33:13;32.60;39.70
24618;DHT22;12762;51.730;5.356;2023-06-19T14:35:43;32.80;39.50
24618;DHT22;12762;51.730;5.356;2023-06-19T14:38:13;33.00;38.80
24618;DHT22;12762;51.730;5.356;2023-06-19T14:40:49;33.00;38.80
24618;DHT22;12762;51.730;5.356;2023-06-19T14:43:16;33.10;38.80
24618;DHT22;12762;51.730;5.356;2023-06-19T14:45:45;33.00;39.00
24618;DHT22;12762;51.730;5.356;2023-06-19T14:48:12;33.10;38.90
24618;DHT22;12762;51.730;5.356;2023-06-19T14:50:39;33.20;39.60
24618;DHT22;12762;51.730;5.356;2023-06-19T14:53:06;33.30;38.30
24618;DHT22;12762;51.730;5.356;2023-06-19T14:55:34;33.20;38.00
24618;DHT22;12762;51.730;5.356;2023-06-19T14:58:01;33.20;38.70
24618;DHT22;12762;51.730;5.356;2023-06-19T15:00:28;33.20;38.50
24618;DHT22;12762;51.730;5.356;2023-06-19T15:02:55;33.10;39.40
24618;DHT22;12762;51.730;5.356;2023-06-19T15:05:22;33.10;38.40
24618;DHT22;12762;51.730;5.356;2023-06-19T15:07:49;33.00;38.50
24618;DHT22;12762;51.730;5.356;2023-06-19T15:10:16;33.00;38.70
24618;DHT22;12762;51.730;5.356;2023-06-19T15:12:46;32.90;38.30
24618;DHT22;12762;51.730;5.356;2023-06-19T15:15:13;32.80;38.70
24618;DHT22;12762;51.730;5.356;2023-06-19T15:17:40;32.80;38.30
24618;DHT22;12762;51.730;5.356;2023-06-19T15:20:08;32.80;38.30
24618;DHT22;12762;51.730;5.356;2023-06-19T15:22:35;32.90;38.40
24618;DHT22;12762;51.730;5.356;2023-06-19T15:25:04;33.00;38.30
24618;DHT22;12762;51.730;5.356;2023-06-19T15:27:31;33.00;38.50
24618;DHT22;12762;51.730;5.356;2023-06-19T15:29:58;33.00;38.00
24618;DHT22;12762;51.730;5.356;2023-06-19T15:32:24;32.80;37.80
24618;DHT22;12762;51.730;5.356;2023-06-19T15:34:51;32.70;37.90
24618;DHT22;12762;51.730;5.356;2023-06-19T15:37:18;32.50;37.90
24618;DHT22;12762;51.730;5.356;2023-06-19T15:39:45;32.30;38.10
24618;DHT22;12762;51.730;5.356;2023-06-19T15:42:12;32.30;38.30